createdAt,value
2023-04-20T00:00:48.055Z,3.90
2023-04-20T00:03:18.465Z,3.93
2023-04-20T00:05:52.108Z,4.27
2023-04-20T00:08:20.148Z,3.90
2023-04-20T00:10:50.669Z,4.40
2023-04-20T00:13:19.377Z,4.27
2023-04-20T00:15:51.415Z,4.67
2023-04-20T00:18:22.383Z,4.33
2023-04-20T00:20:51.870Z,4.40
2023-04-20T00:23:22.744Z,3.57
2023-04-20T00:25:57.118Z,4.40
2023-04-20T00:28:27.637Z,4.33
2023-04-20T00:30:58.917Z,4.37
2023-04-20T00:33:30.192Z,4.87
2023-04-20T00:35:58.562Z,5.40
2023-04-20T00:38:28.073Z,4.27
2023-04-20T00:40:58.880Z,4.50
2023-04-20T00:43:29.075Z,3.90
2023-04-20T00:46:04.884Z,4.13
2023-04-20T00:48:35.184Z,4.07
2023-04-20T00:51:07.874Z,5.07
2023-04-20T00:53:38.055Z,3.90
2023-04-20T00:56:06.447Z,5.00
2023-04-20T00:58:46.682Z,3.60
2023-04-20T01:01:18.645Z,4.30
2023-04-20T01:03:47.546Z,3.80
2023-04-20T01:06:18.578Z,4.37
2023-04-20T01:08:54.574Z,4.93
2023-04-20T01:11:28.690Z,3.80
2023-04-20T01:13:56.443Z,4.80
2023-04-20T01:16:25.691Z,4.20
2023-04-20T01:18:53.907Z,3.90
2023-04-20T01:21:23.767Z,4.70
2023-04-20T01:23:55.901Z,4.23
2023-04-20T01:26:25.769Z,4.40
2023-04-20T01:28:54.517Z,3.90
2023-04-20T01:31:24.276Z,4.43
2023-04-20T01:33:53.775Z,4.20
2023-04-20T01:36:25.899Z,3.93
2023-04-20T01:38:55.907Z,4.10
2023-04-20T01:41:26.311Z,5.10
2023-04-20T01:43:57.631Z,4.10
2023-04-20T01:46:26.235Z,4.70
2023-04-20T01:48:54.539Z,4.70
2023-04-20T01:51:32.992Z,4.80
2023-04-20T01:54:02.759Z,4.00
2023-04-20T01:56:35.421Z,4.03
2023-04-20T01:59:04.571Z,4.37
2023-04-20T02:01:32.979Z,4.37
2023-04-20T02:04:01.614Z,4.90
2023-04-20T02:06:33.408Z,5.07
2023-04-20T02:09:05.520Z,4.83
2023-04-20T02:11:35.470Z,4.70
2023-04-20T02:14:03.644Z,4.07
2023-04-20T02:16:33.697Z,4.77
2023-04-20T02:19:05.006Z,4.40
2023-04-20T02:21:34.056Z,4.30
2023-04-20T02:24:06.722Z,4.60
2023-04-20T02:26:37.521Z,4.70
2023-04-20T02:29:06.344Z,4.83
2023-04-20T02:31:34.725Z,4.10
2023-04-20T02:34:03.680Z,5.03
2023-04-20T02:36:42.348Z,4.93
2023-04-20T02:39:12.864Z,4.37
2023-04-20T02:41:46.281Z,4.70
2023-04-20T02:44:14.356Z,4.53
2023-04-20T02:46:43.106Z,5.90
2023-04-20T02:49:11.103Z,5.10
2023-04-20T02:51:41.964Z,4.87
2023-04-20T02:54:12.042Z,5.20
2023-04-20T02:56:40.084Z,5.77
2023-04-20T02:59:08.511Z,5.70
2023-04-20T03:01:37.714Z,5.40
2023-04-20T03:04:06.640Z,5.33
2023-04-20T03:06:38.632Z,4.03
2023-04-20T03:09:07.849Z,5.13
2023-04-20T03:11:38.551Z,5.40
2023-04-20T03:14:11.454Z,4.83
2023-04-20T03:16:41.978Z,4.73
2023-04-20T03:19:10.683Z,4.77
2023-04-20T03:21:38.922Z,5.07
2023-04-20T03:24:07.362Z,4.40
2023-04-20T03:26:48.220Z,5.57
2023-04-20T03:29:18.408Z,4.90
2023-04-20T03:31:47.088Z,5.10
2023-04-20T03:34:19.063Z,4.70
2023-04-20T03:36:50.079Z,5.30
2023-04-20T03:39:20.228Z,5.50
2023-04-20T03:41:50.580Z,5.87
2023-04-20T03:44:20.522Z,6.60
2023-04-20T03:46:51.142Z,5.90
2023-04-20T03:49:22.532Z,7.03
2023-04-20T03:51:50.761Z,6.03
2023-04-20T03:54:18.863Z,4.90
2023-04-20T03:56:55.761Z,4.37
2023-04-20T03:59:28.545Z,6.23
2023-04-20T04:02:00.695Z,5.70
2023-04-20T04:04:29.027Z,5.50
2023-04-20T04:07:03.077Z,5.93
2023-04-20T04:09:32.528Z,6.27
2023-04-20T04:12:01.402Z,5.57
2023-04-20T04:14:36.249Z,6.27
2023-04-20T04:17:07.784Z,5.80
2023-04-20T04:19:37.925Z,5.13
2023-04-20T04:22:08.261Z,5.27
2023-04-20T04:24:38.514Z,5.13
2023-04-20T04:27:07.006Z,5.90
2023-04-20T04:29:39.050Z,6.50
2023-04-20T04:32:14.807Z,6.60
2023-04-20T04:34:50.099Z,5.67
2023-04-20T04:37:18.115Z,5.77
2023-04-20T04:39:48.396Z,5.60
2023-04-20T04:42:16.574Z,5.43
2023-04-20T04:44:52.232Z,7.33
2023-04-20T04:47:31.871Z,6.20
2023-04-20T04:50:06.195Z,5.47
2023-04-20T04:52:40.481Z,4.73
2023-04-20T04:55:13.857Z,6.00
2023-04-20T04:57:49.716Z,6.10
2023-04-20T05:00:24.027Z,5.77
2023-04-20T05:02:53.482Z,6.40
2023-04-20T05:05:28.517Z,5.83
2023-04-20T05:08:00.483Z,6.23
2023-04-20T05:10:28.260Z,5.83
2023-04-20T05:12:59.705Z,5.90
2023-04-20T05:15:31.981Z,5.80
2023-04-20T05:18:04.608Z,5.30
2023-04-20T05:20:33.832Z,4.90
2023-04-20T05:23:07.122Z,5.30
2023-04-20T05:25:40.597Z,5.60
2023-04-20T05:28:14.849Z,6.03
2023-04-20T05:30:44.829Z,5.33
2023-04-20T05:33:18.797Z,5.80
2023-04-20T05:35:46.614Z,4.97
2023-04-20T05:38:17.692Z,5.53
2023-04-20T05:40:47.236Z,6.00
2023-04-20T05:43:15.786Z,5.07
2023-04-20T05:45:47.973Z,5.90
2023-04-20T05:48:17.561Z,6.07
2023-04-20T05:50:47.148Z,6.13
2023-04-20T05:53:15.075Z,5.23
2023-04-20T05:55:46.314Z,6.63
2023-04-20T05:58:19.850Z,6.67
2023-04-20T06:00:54.942Z,5.60
2023-04-20T06:03:28.186Z,6.10
2023-04-20T06:05:59.487Z,5.90
2023-04-20T06:08:31.637Z,5.87
2023-04-20T06:11:05.283Z,7.00
2023-04-20T06:13:36.155Z,6.10
2023-04-20T06:16:11.162Z,5.90
2023-04-20T06:18:40.563Z,6.70
2023-04-20T06:21:13.984Z,7.53
2023-04-20T06:23:42.775Z,7.27
2023-04-20T06:26:11.019Z,8.20
2023-04-20T06:28:41.873Z,6.13
2023-04-20T06:31:13.364Z,7.47
2023-04-20T06:33:41.335Z,7.33
2023-04-20T06:36:09.327Z,7.60
2023-04-20T06:38:37.174Z,7.10
2023-04-20T06:41:07.764Z,7.10
2023-04-20T06:43:36.819Z,6.40
2023-04-20T06:46:07.207Z,6.90
2023-04-20T06:48:46.867Z,6.33
2023-04-20T06:51:15.548Z,7.20
2023-04-20T06:53:46.536Z,6.73
2023-04-20T06:56:17.162Z,7.37
2023-04-20T06:58:45.682Z,7.53
2023-04-20T07:01:14.959Z,7.17
2023-04-20T07:03:46.987Z,7.10
2023-04-20T07:06:17.535Z,6.90
2023-04-20T07:08:46.958Z,6.73
2023-04-20T07:11:31.772Z,7.60
2023-04-20T07:14:01.795Z,7.60
2023-04-20T07:16:33.890Z,7.90
2023-04-20T07:19:05.538Z,7.13
2023-04-20T07:21:33.632Z,8.47
2023-04-20T07:24:04.144Z,8.43
2023-04-20T07:26:35.121Z,6.47
2023-04-20T07:29:06.748Z,7.50
2023-04-20T07:31:35.625Z,7.00
2023-04-20T07:34:06.977Z,7.07
2023-04-20T07:36:35.583Z,7.23
2023-04-20T07:39:08.581Z,9.63
2023-04-20T07:41:37.617Z,7.40
2023-04-20T07:44:06.255Z,9.27
2023-04-20T07:46:34.374Z,7.60
2023-04-20T07:49:03.120Z,9.00
2023-04-20T07:51:37.602Z,7.60
2023-04-20T07:54:07.936Z,8.50
2023-04-20T07:56:36.056Z,7.97
2023-04-20T07:59:04.252Z,8.40
2023-04-20T08:01:35.539Z,8.63
2023-04-20T08:04:03.962Z,8.63
2023-04-20T08:06:40.272Z,8.10
2023-04-20T08:09:11.407Z,8.90
2023-04-20T08:11:41.841Z,9.07
2023-04-20T08:14:10.490Z,8.60
2023-04-20T08:16:38.550Z,8.13
2023-04-20T08:19:10.577Z,8.47
2023-04-20T08:21:42.534Z,8.77
2023-04-20T08:24:15.793Z,8.13
2023-04-20T08:26:45.836Z,8.83
2023-04-20T08:29:17.073Z,9.17
2023-04-20T08:31:44.930Z,8.80
2023-04-20T08:34:17.676Z,7.93
2023-04-20T08:36:47.400Z,8.20
2023-04-20T08:39:20.691Z,8.03
2023-04-20T08:41:52.035Z,9.17
2023-04-20T08:44:20.110Z,8.97
2023-04-20T08:46:51.925Z,8.47
2023-04-20T08:49:24.373Z,8.27
2023-04-20T08:51:54.295Z,9.13
2023-04-20T08:54:27.780Z,8.53
2023-04-20T08:57:01.900Z,8.20
2023-04-20T08:59:31.165Z,8.63
2023-04-20T09:02:09.562Z,7.60
2023-04-20T09:04:37.567Z,8.33
2023-04-20T09:07:13.710Z,9.20
2023-04-20T09:09:43.640Z,9.33
2023-04-20T09:12:16.898Z,9.20
2023-04-20T09:14:50.394Z,9.03
2023-04-20T09:17:20.624Z,8.73
2023-04-20T09:20:08.322Z,8.63
2023-04-20T09:22:39.606Z,9.00
2023-04-20T09:25:16.584Z,8.03
2023-04-20T09:27:44.779Z,8.10
2023-04-20T09:30:16.184Z,7.80
2023-04-20T09:32:44.148Z,7.67
2023-04-20T09:35:23.098Z,8.70
2023-04-20T09:37:55.181Z,8.00
2023-04-20T09:40:32.521Z,10.30
2023-04-20T09:43:06.032Z,7.57
2023-04-20T09:45:34.243Z,7.90
2023-04-20T09:48:07.332Z,10.37
2023-04-20T09:50:48.449Z,8.13
2023-04-20T09:53:23.161Z,9.27
2023-04-20T09:55:55.242Z,8.40
2023-04-20T09:58:24.265Z,8.10
2023-04-20T10:00:54.950Z,8.67
2023-04-20T10:03:28.880Z,6.83
2023-04-20T10:05:57.804Z,7.63
2023-04-20T10:08:29.687Z,7.73
2023-04-20T10:10:58.267Z,8.40
2023-04-20T10:13:36.577Z,8.10
2023-04-20T10:16:05.173Z,7.63
2023-04-20T10:18:33.795Z,7.87
2023-04-20T10:21:09.927Z,8.10
2023-04-20T10:24:03.210Z,8.27
2023-04-20T10:26:39.332Z,8.27
2023-04-20T10:29:10.633Z,7.87
2023-04-20T10:31:42.079Z,7.57
2023-04-20T10:34:12.627Z,8.60
2023-04-20T10:36:43.365Z,11.13
2023-04-20T10:39:21.215Z,9.07
2023-04-20T10:41:55.105Z,8.90
2023-04-20T10:44:28.827Z,8.83
2023-04-20T10:46:59.804Z,8.27
2023-04-20T10:49:29.500Z,8.23
2023-04-20T10:51:57.961Z,9.00
2023-04-20T10:54:29.287Z,9.30
2023-04-20T10:57:01.500Z,9.03
2023-04-20T10:59:33.014Z,9.13
2023-04-20T11:02:02.919Z,9.60
2023-04-20T11:04:32.974Z,10.30
2023-04-20T11:07:08.297Z,9.00
2023-04-20T11:09:43.071Z,8.90
2023-04-20T11:12:23.130Z,9.60
2023-04-20T11:14:58.400Z,8.87
2023-04-20T11:17:34.313Z,9.47
2023-04-20T11:20:11.269Z,9.17
2023-04-20T11:22:40.237Z,9.57
2023-04-20T11:25:16.424Z,8.80
2023-04-20T11:27:45.533Z,8.27
2023-04-20T11:30:17.277Z,8.93
2023-04-20T11:32:56.126Z,7.30
2023-04-20T11:35:27.224Z,8.23
2023-04-20T11:38:00.003Z,7.70
2023-04-20T11:40:30.247Z,8.80
2023-04-20T11:43:01.415Z,8.37
2023-04-20T11:45:36.954Z,6.33
2023-04-20T11:48:10.905Z,7.50
2023-04-20T11:50:41.835Z,6.80
2023-04-20T11:53:15.038Z,7.43
2023-04-20T11:55:44.969Z,7.73
2023-04-20T11:58:15.728Z,7.70
2023-04-20T12:00:44.083Z,6.87
2023-04-20T12:03:12.538Z,6.30
2023-04-20T12:05:43.587Z,7.97
2023-04-20T12:08:22.498Z,6.60
2023-04-20T12:10:58.420Z,6.87
2023-04-20T12:13:27.992Z,6.67
2023-04-20T12:16:01.988Z,7.13
2023-04-20T12:18:32.192Z,10.10
2023-04-20T12:21:01.141Z,7.20
2023-04-20T12:23:34.640Z,5.60
2023-04-20T12:26:20.310Z,5.43
2023-04-20T12:28:57.634Z,6.97
2023-04-20T12:31:26.748Z,6.77
2023-04-20T12:33:55.744Z,6.37
2023-04-20T12:36:28.974Z,7.70
2023-04-20T12:38:57.875Z,7.70
2023-04-20T12:41:33.515Z,7.07
2023-04-20T12:44:10.717Z,7.60
2023-04-20T12:46:39.897Z,7.80
2023-04-20T12:49:12.966Z,6.77
2023-04-20T12:51:49.641Z,7.30
2023-04-20T12:54:20.448Z,6.47
2023-04-20T12:56:54.917Z,6.73
2023-04-20T12:59:25.014Z,7.83
2023-04-20T13:01:54.096Z,6.97
2023-04-20T13:04:25.737Z,7.07
2023-04-20T13:07:08.576Z,8.00
2023-04-20T13:09:38.096Z,8.70
2023-04-20T13:12:12.453Z,8.40
2023-04-20T13:14:41.000Z,6.87
2023-04-20T13:17:09.615Z,8.37
2023-04-20T13:19:41.872Z,7.53
2023-04-20T13:22:14.959Z,7.33
2023-04-20T13:24:46.513Z,6.90
2023-04-20T13:27:19.643Z,7.10
2023-04-20T13:29:50.917Z,7.77
2023-04-20T13:32:21.859Z,8.00
2023-04-20T13:34:51.513Z,6.80
2023-04-20T13:37:20.816Z,7.73
2023-04-20T13:39:50.405Z,6.80
2023-04-20T13:42:24.966Z,7.07
2023-04-20T13:44:57.507Z,8.30
2023-04-20T13:47:31.253Z,7.33
2023-04-20T13:50:09.766Z,8.07
2023-04-20T13:52:38.260Z,7.47
2023-04-20T13:55:13.328Z,6.93
2023-04-20T13:57:43.934Z,7.93
2023-04-20T14:00:12.476Z,7.00
2023-04-20T14:02:42.293Z,7.27
2023-04-20T14:05:15.280Z,7.87
2023-04-20T14:07:43.956Z,8.60
2023-04-20T14:10:13.638Z,7.80
2023-04-20T14:12:44.974Z,8.10
2023-04-20T14:15:16.201Z,8.20
2023-04-20T14:17:51.676Z,8.17
2023-04-20T14:20:24.673Z,8.43
2023-04-20T14:22:55.299Z,7.53
2023-04-20T14:25:23.918Z,6.87
2023-04-20T14:27:57.852Z,7.97
2023-04-20T14:30:30.195Z,7.30
2023-04-20T14:33:02.773Z,7.90
2023-04-20T14:35:31.074Z,8.40
2023-04-20T14:38:02.112Z,6.83
2023-04-20T14:40:32.344Z,7.80
2023-04-20T14:43:02.035Z,8.30
2023-04-20T14:45:32.939Z,7.00
2023-04-20T14:48:03.268Z,8.20
2023-04-20T14:50:32.374Z,9.07
2023-04-20T14:53:03.958Z,7.80
2023-04-20T14:55:33.692Z,8.40
2023-04-20T14:58:09.349Z,8.63
2023-04-20T15:00:39.014Z,7.10
2023-04-20T15:03:13.269Z,7.87
2023-04-20T15:05:43.770Z,8.43
2023-04-20T15:08:12.438Z,9.07
2023-04-20T15:10:41.506Z,8.30
2023-04-20T15:13:12.596Z,7.63
2023-04-20T15:15:48.460Z,8.57
2023-04-20T15:18:18.435Z,8.10
2023-04-20T15:20:54.293Z,8.80
2023-04-20T15:23:25.271Z,8.13
2023-04-20T15:25:54.234Z,8.30
2023-04-20T15:28:25.953Z,8.37
2023-04-20T15:30:59.655Z,9.90
2023-04-20T15:33:28.623Z,7.07
2023-04-20T15:36:05.066Z,8.43
2023-04-20T15:38:33.074Z,10.17
2023-04-20T15:41:03.086Z,10.77
2023-04-20T15:43:32.474Z,11.10
2023-04-20T15:46:00.357Z,9.70
2023-04-20T15:48:32.439Z,9.80
2023-04-20T15:51:02.780Z,9.90
2023-04-20T15:53:34.979Z,9.40
2023-04-20T15:56:06.585Z,9.30
2023-04-20T15:58:38.033Z,9.63
2023-04-20T16:01:06.476Z,8.97
2023-04-20T16:03:35.499Z,9.00
2023-04-20T16:06:04.529Z,9.67
2023-04-20T16:08:36.787Z,8.27
2023-04-20T16:11:10.280Z,8.70
2023-04-20T16:13:41.530Z,9.20
2023-04-20T16:16:12.924Z,7.57
2023-04-20T16:18:43.767Z,8.00
2023-04-20T16:21:13.464Z,7.73
2023-04-20T16:23:41.922Z,8.30
2023-04-20T16:26:14.020Z,8.60
2023-04-20T16:28:47.002Z,8.63
2023-04-20T16:31:18.019Z,9.40
2023-04-20T16:33:48.893Z,8.80
2023-04-20T16:36:18.457Z,9.87
2023-04-20T16:38:50.594Z,10.20
2023-04-20T16:41:22.873Z,8.00
2023-04-20T16:43:54.951Z,8.43
2023-04-20T16:46:26.647Z,9.50
2023-04-20T16:48:57.776Z,8.90
2023-04-20T16:51:30.377Z,10.57
2023-04-20T16:54:01.910Z,9.40
2023-04-20T16:56:31.718Z,10.40
2023-04-20T16:59:17.089Z,9.40
2023-04-20T17:01:48.379Z,9.60
2023-04-20T17:04:18.993Z,9.67
2023-04-20T17:06:49.221Z,8.30
2023-04-20T17:09:23.011Z,9.10
2023-04-20T17:11:53.227Z,9.90
2023-04-20T17:14:24.691Z,9.20
2023-04-20T17:16:56.906Z,9.53
2023-04-20T17:19:25.464Z,9.33
2023-04-20T17:21:57.880Z,9.67
2023-04-20T17:24:29.922Z,9.37
2023-04-20T17:27:01.843Z,10.10
2023-04-20T17:29:38.738Z,10.03
2023-04-20T17:32:10.442Z,9.13
2023-04-20T17:34:42.376Z,9.60
2023-04-20T17:37:12.273Z,9.47
2023-04-20T17:39:42.207Z,10.50
2023-04-20T17:42:13.913Z,8.47
2023-04-20T17:44:50.074Z,9.90
2023-04-20T17:47:20.909Z,9.33
2023-04-20T17:49:49.555Z,9.43
2023-04-20T17:52:22.450Z,9.27
2023-04-20T17:54:51.035Z,9.80
2023-04-20T17:57:22.367Z,10.43
2023-04-20T17:59:56.234Z,9.50
2023-04-20T18:02:29.673Z,10.37
2023-04-20T18:05:01.827Z,10.57
2023-04-20T18:07:32.213Z,8.57
2023-04-20T18:10:02.377Z,12.50
2023-04-20T18:12:31.386Z,10.60
2023-04-20T18:15:05.565Z,9.43
2023-04-20T18:17:38.394Z,9.63
2023-04-20T18:20:09.366Z,9.63
2023-04-20T18:22:38.890Z,10.13
2023-04-20T18:25:08.735Z,9.53
2023-04-20T18:27:44.412Z,9.43
2023-04-20T18:30:17.691Z,8.67
2023-04-20T18:32:49.254Z,9.00
2023-04-20T18:35:20.371Z,9.80
2023-04-20T18:37:48.538Z,8.80
2023-04-20T18:40:19.381Z,9.63
2023-04-20T18:42:50.578Z,9.53
2023-04-20T18:45:21.916Z,9.53
2023-04-20T18:47:57.594Z,10.60
2023-04-20T18:50:28.950Z,10.80
2023-04-20T18:52:57.628Z,10.07
2023-04-20T18:55:30.121Z,10.00
2023-04-20T18:58:00.128Z,9.97
2023-04-20T19:00:31.127Z,10.70
2023-04-20T19:05:42.193Z,9.90
2023-04-20T19:08:13.734Z,10.37
2023-04-20T19:10:44.210Z,10.20
2023-04-20T19:13:12.860Z,10.73
2023-04-20T19:15:50.953Z,10.20
2023-04-20T19:18:24.299Z,11.33
2023-04-20T19:20:59.403Z,9.73
2023-04-20T19:23:27.474Z,10.50
2023-04-20T19:25:58.816Z,10.27
2023-04-20T19:28:33.442Z,11.20
2023-04-20T19:31:11.740Z,11.87
2023-04-20T19:33:44.760Z,10.63
2023-04-20T19:36:13.661Z,11.30
2023-04-20T19:38:43.588Z,10.83
2023-04-20T19:41:14.571Z,11.90
2023-04-20T19:43:43.393Z,11.80
2023-04-20T19:46:18.729Z,11.90
2023-04-20T19:48:49.308Z,10.63
2023-04-20T19:51:22.402Z,11.37
2023-04-20T19:54:07.941Z,11.57
2023-04-20T19:56:43.894Z,11.77
2023-04-20T19:59:22.934Z,11.30
2023-04-20T20:02:00.788Z,11.80
2023-04-20T20:04:36.044Z,10.60
2023-04-20T20:07:16.336Z,13.47
2023-04-20T20:09:45.275Z,12.97
2023-04-20T20:12:14.704Z,13.23
2023-04-20T20:14:46.092Z,13.10
2023-04-20T20:17:16.039Z,14.03
2023-04-20T20:19:47.160Z,14.10
2023-04-20T20:22:19.102Z,13.37
2023-04-20T20:24:51.549Z,14.40
2023-04-20T20:27:23.128Z,15.50
2023-04-20T20:29:55.692Z,13.77
2023-04-20T20:32:31.627Z,15.20
2023-04-20T20:35:09.891Z,14.17
2023-04-20T20:37:38.901Z,14.63
2023-04-20T20:40:16.177Z,13.73
2023-04-20T20:42:45.371Z,14.20
2023-04-20T20:45:19.795Z,13.93
2023-04-20T20:47:54.432Z,12.83
2023-04-20T20:50:31.193Z,14.47
2023-04-20T20:52:59.619Z,13.07
2023-04-20T20:55:28.376Z,14.37
2023-04-20T20:58:00.944Z,13.67
2023-04-20T21:00:35.622Z,14.87
2023-04-20T21:03:10.426Z,14.70
2023-04-20T21:05:41.206Z,15.67
2023-04-20T21:08:17.326Z,14.73
2023-04-20T21:10:48.952Z,13.20
2023-04-20T21:13:26.101Z,13.60
2023-04-20T21:16:00.067Z,12.30
2023-04-20T21:18:30.545Z,12.20
2023-04-20T21:21:10.078Z,12.83
2023-04-20T21:23:40.679Z,13.20
2023-04-20T21:26:09.446Z,12.60
2023-04-20T21:28:40.180Z,13.83
2023-04-20T21:31:09.745Z,13.03
2023-04-20T21:33:42.564Z,12.30
2023-04-20T21:36:11.218Z,12.40
2023-04-20T21:38:39.788Z,12.00
2023-04-20T21:41:10.393Z,14.20
2023-04-20T21:43:38.564Z,14.60
2023-04-20T21:46:07.025Z,12.83
2023-04-20T21:48:40.407Z,12.77
2023-04-20T21:51:08.954Z,14.20
2023-04-20T21:53:42.483Z,12.70
2023-04-20T21:56:12.206Z,12.80
2023-04-20T21:58:46.698Z,12.43
2023-04-20T22:01:18.336Z,13.90
2023-04-20T22:03:50.893Z,12.97
2023-04-20T22:06:22.911Z,11.77
2023-04-20T22:08:52.793Z,11.70
2023-04-20T22:11:21.176Z,14.60
2023-04-20T22:14:06.560Z,15.13
2023-04-20T22:16:37.495Z,15.57
2023-04-20T22:19:07.641Z,14.50
2023-04-20T22:21:38.576Z,15.13
2023-04-20T22:24:07.543Z,13.37
2023-04-20T22:26:35.956Z,13.13
2023-04-20T22:29:11.227Z,14.17
2023-04-20T22:31:41.009Z,13.80
2023-04-20T22:34:15.011Z,12.37
2023-04-20T22:36:49.113Z,12.83
2023-04-20T22:39:22.470Z,14.47
2023-04-20T22:41:53.840Z,14.70
2023-04-20T22:44:25.298Z,12.17
2023-04-20T22:46:54.337Z,14.07
2023-04-20T22:49:32.381Z,12.67
2023-04-20T22:52:00.918Z,13.10
2023-04-20T22:54:31.626Z,11.33
2023-04-20T22:57:03.724Z,12.73
2023-04-20T22:59:38.029Z,12.33
2023-04-20T23:02:09.344Z,12.17
2023-04-20T23:04:39.667Z,12.17
2023-04-20T23:07:08.987Z,12.47
2023-04-20T23:09:43.001Z,10.70
2023-04-20T23:12:12.892Z,12.80
2023-04-20T23:14:43.521Z,11.10
2023-04-20T23:17:11.931Z,13.07
2023-04-20T23:19:42.626Z,12.00
2023-04-20T23:22:12.353Z,12.97
2023-04-20T23:24:43.610Z,11.73
2023-04-20T23:27:12.251Z,11.30
2023-04-20T23:29:46.867Z,12.73
2023-04-20T23:32:18.298Z,11.87
2023-04-20T23:34:47.944Z,11.83
2023-04-20T23:37:16.407Z,12.90
2023-04-20T23:39:44.810Z,11.07
2023-04-20T23:42:16.446Z,10.73
2023-04-20T23:44:47.656Z,12.17
2023-04-20T23:47:22.723Z,11.03
2023-04-20T23:49:52.335Z,10.93
2023-04-20T23:52:20.971Z,11.77
2023-04-20T23:54:53.426Z,10.40
2023-04-20T23:57:23.119Z,8.03
2023-04-20T23:59:55.232Z,10.03
